createdAt,value
2019-02-26T00:00:56.486Z,46.47
2019-02-26T00:03:28.530Z,44.50
2019-02-26T00:05:59.516Z,47.00
2019-02-26T00:08:31.727Z,46.20
2019-02-26T00:11:03.507Z,45.27
2019-02-26T00:13:34.611Z,46.07
2019-02-26T00:16:07.687Z,44.93
2019-02-26T00:18:36.528Z,44.37
2019-02-26T00:21:06.422Z,44.30
2019-02-26T00:23:36.257Z,45.00
2019-02-26T00:26:06.234Z,42.83
2019-02-26T00:28:36.450Z,44.33
2019-02-26T00:31:07.769Z,45.77
2019-02-26T00:33:37.950Z,44.57
2019-02-26T00:36:09.001Z,43.13
2019-02-26T00:38:40.014Z,45.43
2019-02-26T00:41:11.081Z,45.13
2019-02-26T00:43:40.969Z,45.23
2019-02-26T00:46:10.900Z,43.33
2019-02-26T00:48:43.046Z,43.37
2019-02-26T00:51:12.361Z,43.93
2019-02-26T00:53:42.235Z,43.97
2019-02-26T00:56:12.110Z,44.77
2019-02-26T00:58:43.990Z,45.47
2019-02-26T01:01:15.281Z,45.53
2019-02-26T01:03:46.981Z,45.47
2019-02-26T01:06:16.619Z,44.63
2019-02-26T01:08:47.079Z,43.37
2019-02-26T01:11:19.326Z,45.57
2019-02-26T01:13:50.376Z,42.90
2019-02-26T01:16:20.329Z,40.27
2019-02-26T01:18:51.044Z,42.27
2019-02-26T01:21:24.384Z,40.63
2019-02-26T01:23:53.213Z,40.60
2019-02-26T01:26:23.042Z,43.00
2019-02-26T01:28:56.124Z,40.47
2019-02-26T01:31:27.382Z,39.17
2019-02-26T01:33:58.210Z,39.70
2019-02-26T01:36:28.067Z,37.80
2019-02-26T01:38:57.904Z,36.97
2019-02-26T01:41:27.804Z,35.57
2019-02-26T01:43:57.713Z,35.60
2019-02-26T01:46:27.546Z,36.80
2019-02-26T01:48:58.017Z,38.77
2019-02-26T01:51:28.919Z,37.60
2019-02-26T01:53:58.767Z,39.40
2019-02-26T01:56:28.637Z,38.43
2019-02-26T01:59:02.164Z,39.50
2019-02-26T02:01:29.976Z,37.60
2019-02-26T02:03:59.896Z,37.73
2019-02-26T02:06:30.371Z,35.90
2019-02-26T02:09:01.255Z,35.20
2019-02-26T02:11:33.315Z,33.53
2019-02-26T02:14:04.218Z,31.97
2019-02-26T02:16:34.385Z,31.00
2019-02-26T02:19:04.431Z,29.70
2019-02-26T02:21:35.668Z,30.07
2019-02-26T02:24:08.248Z,29.10
2019-02-26T02:26:37.269Z,30.50
2019-02-26T02:29:07.121Z,29.60
2019-02-26T02:31:37.816Z,27.33
2019-02-26T02:34:08.494Z,28.03
2019-02-26T02:36:38.330Z,25.60
2019-02-26T02:39:12.969Z,25.23
2019-02-26T02:41:42.099Z,26.00
2019-02-26T02:44:14.495Z,25.37
2019-02-26T02:46:44.565Z,24.93
2019-02-26T02:49:17.872Z,23.67
2019-02-26T02:51:47.287Z,23.87
2019-02-26T02:54:18.564Z,23.70
2019-02-26T02:56:48.680Z,23.83
2019-02-26T02:59:18.573Z,23.10
2019-02-26T03:01:51.339Z,22.67
2019-02-26T03:04:22.088Z,23.30
2019-02-26T03:06:52.928Z,21.60
2019-02-26T03:09:22.921Z,22.77
2019-02-26T03:11:54.939Z,22.40
2019-02-26T03:14:24.293Z,21.30
2019-02-26T03:16:54.191Z,21.87
2019-02-26T03:19:24.051Z,23.40
2019-02-26T03:21:55.046Z,23.07
2019-02-26T03:24:26.262Z,22.40
2019-02-26T03:26:56.579Z,23.00
2019-02-26T03:29:28.466Z,22.57
2019-02-26T03:31:57.984Z,22.23
2019-02-26T03:34:27.824Z,22.20
2019-02-26T03:36:59.943Z,22.30
2019-02-26T03:39:29.187Z,22.20
2019-02-26T03:41:59.057Z,21.80
2019-02-26T03:44:30.311Z,21.63
2019-02-26T03:47:00.393Z,23.30
2019-02-26T03:49:30.266Z,22.07
2019-02-26T03:52:00.287Z,23.20
2019-02-26T03:54:30.557Z,21.67
2019-02-26T03:57:00.427Z,22.97
2019-02-26T03:59:30.383Z,23.60
2019-02-26T04:02:00.331Z,22.60
2019-02-26T04:04:30.958Z,22.60
2019-02-26T04:07:04.291Z,21.93
2019-02-26T04:09:33.393Z,22.77
2019-02-26T04:12:03.245Z,22.17
2019-02-26T04:14:33.134Z,23.57
2019-02-26T04:17:04.126Z,23.23
2019-02-26T04:19:34.708Z,22.97
2019-02-26T04:22:26.616Z,23.27
2019-02-26T04:25:01.443Z,23.43
2019-02-26T04:27:59.788Z,24.57
2019-02-26T04:31:02.765Z,23.83
2019-02-26T04:34:08.442Z,24.57
2019-02-26T04:37:18.053Z,24.53
2019-02-26T04:40:18.215Z,24.90
2019-02-26T04:43:34.118Z,25.27
2019-02-26T04:46:19.709Z,26.87
2019-02-26T04:48:49.655Z,34.47
2019-02-26T04:51:19.512Z,31.70
2019-02-26T04:53:51.785Z,29.17
2019-02-26T04:56:20.897Z,33.43
2019-02-26T04:58:50.781Z,30.03
2019-02-26T05:01:20.641Z,27.53
2019-02-26T05:03:50.487Z,25.03
2019-02-26T05:06:20.370Z,24.77
2019-02-26T05:08:50.232Z,24.80
2019-02-26T05:11:31.388Z,24.83
2019-02-26T05:13:51.591Z,24.50
2019-02-26T05:16:21.461Z,26.27
2019-02-26T05:18:52.230Z,25.13
2019-02-26T05:21:24.483Z,25.63
2019-02-26T05:23:55.187Z,24.57
2019-02-26T05:26:25.854Z,24.60
2019-02-26T05:28:55.749Z,25.83
2019-02-26T05:31:25.633Z,25.67
2019-02-26T05:33:57.731Z,24.40
2019-02-26T05:36:28.321Z,23.43
2019-02-26T05:39:00.317Z,24.33
2019-02-26T05:41:29.951Z,24.30
2019-02-26T05:44:03.519Z,23.63
2019-02-26T05:46:31.322Z,22.93
2019-02-26T05:49:03.028Z,23.47
2019-02-26T05:51:35.138Z,22.93
2019-02-26T05:54:07.805Z,22.57
2019-02-26T05:56:37.216Z,21.20
2019-02-26T05:59:09.632Z,23.67
2019-02-26T06:01:39.554Z,22.20
2019-02-26T06:04:12.346Z,21.63
2019-02-26T06:06:41.963Z,22.77
2019-02-26T06:09:11.818Z,21.43
2019-02-26T06:11:46.418Z,20.27
2019-02-26T06:14:14.065Z,20.47
2019-02-26T06:16:46.207Z,22.40
2019-02-26T06:19:18.169Z,20.67
2019-02-26T06:21:49.748Z,22.07
2019-02-26T06:24:22.417Z,21.10
2019-02-26T06:26:50.912Z,19.53
2019-02-26T06:29:24.435Z,19.97
2019-02-26T06:31:52.459Z,18.90
2019-02-26T06:34:22.476Z,19.70
2019-02-26T06:36:54.942Z,20.80
2019-02-26T06:39:26.739Z,20.17
2019-02-26T06:41:56.314Z,19.87
2019-02-26T06:44:26.332Z,17.37
2019-02-26T06:47:02.624Z,17.60
2019-02-26T06:49:36.009Z,17.00
2019-02-26T06:52:07.887Z,17.17
2019-02-26T06:54:37.479Z,16.57
2019-02-26T06:57:07.375Z,18.33
2019-02-26T06:59:37.287Z,17.73
2019-02-26T07:02:08.778Z,17.37
2019-02-26T07:04:38.910Z,17.60
2019-02-26T07:07:12.237Z,17.23
2019-02-26T07:09:41.938Z,15.23
2019-02-26T07:12:11.902Z,16.57
2019-02-26T07:14:41.773Z,15.83
2019-02-26T07:17:11.631Z,17.43
2019-02-26T07:19:41.510Z,16.03
2019-02-26T07:22:13.395Z,16.83
2019-02-26T07:24:44.558Z,14.97
2019-02-26T07:27:14.387Z,14.83
2019-02-26T07:29:45.547Z,15.70
2019-02-26T07:32:17.910Z,14.83
2019-02-26T07:34:49.655Z,13.50
2019-02-26T07:37:18.820Z,14.13
2019-02-26T07:39:49.712Z,14.93
2019-02-26T07:42:20.311Z,13.73
2019-02-26T07:44:50.215Z,13.33
2019-02-26T07:47:22.013Z,14.00
2019-02-26T07:49:51.595Z,13.00
2019-02-26T07:52:21.960Z,14.43
2019-02-26T07:54:53.019Z,13.50
2019-02-26T07:57:24.777Z,11.87
2019-02-26T07:59:54.444Z,10.97
2019-02-26T08:02:26.064Z,11.83
2019-02-26T08:04:55.805Z,11.50
2019-02-26T08:07:26.737Z,10.37
2019-02-26T08:09:57.171Z,10.70
2019-02-26T08:12:27.054Z,10.17
2019-02-26T08:14:56.951Z,9.80
2019-02-26T08:17:26.789Z,10.23
2019-02-26T08:19:56.647Z,10.73
2019-02-26T08:22:27.520Z,9.97
2019-02-26T08:24:58.189Z,9.33
2019-02-26T08:27:28.561Z,9.80
2019-02-26T08:30:00.939Z,8.77
2019-02-26T08:32:31.114Z,8.37
2019-02-26T08:35:00.962Z,9.00
2019-02-26T08:37:30.953Z,8.40
2019-02-26T08:40:00.843Z,8.63
2019-02-26T08:42:30.683Z,7.63
2019-02-26T08:45:00.556Z,8.13
2019-02-26T08:47:30.715Z,8.30
2019-02-26T08:50:01.752Z,8.30
2019-02-26T08:52:32.135Z,7.67
2019-02-26T08:55:02.027Z,7.80
2019-02-26T08:57:31.912Z,9.00
2019-02-26T09:00:01.793Z,7.90
2019-02-26T09:02:31.622Z,7.57
2019-02-26T09:05:02.671Z,7.40
2019-02-26T09:07:33.449Z,7.67
2019-02-26T09:10:03.315Z,7.87
2019-02-26T09:12:33.197Z,7.80
2019-02-26T09:15:03.087Z,8.57
2019-02-26T09:17:34.692Z,7.80
2019-02-26T09:20:09.424Z,7.40
2019-02-26T09:22:37.009Z,7.43
2019-02-26T09:25:07.281Z,6.80
2019-02-26T09:27:42.746Z,7.20
2019-02-26T09:30:16.162Z,6.80
2019-02-26T09:32:46.238Z,6.97
2019-02-26T09:35:18.887Z,6.80
2019-02-26T09:37:50.180Z,5.83
2019-02-26T09:40:20.209Z,5.87
2019-02-26T09:42:54.249Z,5.90
2019-02-26T09:45:25.390Z,5.87
2019-02-26T09:47:55.604Z,6.50
2019-02-26T09:50:25.577Z,5.80
2019-02-26T09:52:58.621Z,5.70
2019-02-26T09:55:26.940Z,5.70
2019-02-26T09:57:56.817Z,5.43
2019-02-26T10:00:29.314Z,5.20
2019-02-26T10:02:58.154Z,5.77
2019-02-26T10:05:28.013Z,5.87
2019-02-26T10:07:59.994Z,4.90
2019-02-26T10:10:31.204Z,5.33
2019-02-26T10:13:02.881Z,5.17
2019-02-26T10:15:34.649Z,5.27
2019-02-26T10:18:06.572Z,5.60
2019-02-26T10:20:35.476Z,5.83
2019-02-26T10:23:06.271Z,5.50
2019-02-26T10:25:38.594Z,5.93
2019-02-26T10:28:09.654Z,6.10
2019-02-26T10:30:41.601Z,4.90
2019-02-26T10:33:10.928Z,5.73
2019-02-26T10:35:42.803Z,4.60
2019-02-26T10:38:12.278Z,4.70
2019-02-26T10:40:53.497Z,4.20
2019-02-26T10:43:13.653Z,3.97
2019-02-26T10:45:44.847Z,4.33
2019-02-26T10:48:16.853Z,4.80
2019-02-26T10:50:49.119Z,4.70
2019-02-26T10:53:20.353Z,4.57
2019-02-26T10:55:49.741Z,4.60
2019-02-26T10:58:19.676Z,4.20
2019-02-26T11:00:54.790Z,5.00
2019-02-26T11:03:24.004Z,3.87
2019-02-26T11:05:53.890Z,4.03
2019-02-26T11:08:26.749Z,3.80
2019-02-26T11:10:55.243Z,4.10
2019-02-26T11:13:25.885Z,4.17
2019-02-26T11:15:57.578Z,4.13
2019-02-26T11:18:27.298Z,3.63
2019-02-26T11:20:59.289Z,4.43
2019-02-26T11:23:31.167Z,4.17
2019-02-26T11:26:00.191Z,3.90
2019-02-26T11:28:33.238Z,4.13
2019-02-26T11:31:01.552Z,4.30
2019-02-26T11:33:31.455Z,4.53
2019-02-26T11:36:03.023Z,4.10
2019-02-26T11:38:34.777Z,4.70
2019-02-26T11:41:04.363Z,3.97
2019-02-26T11:43:34.296Z,4.00
2019-02-26T11:46:06.290Z,3.80
2019-02-26T11:48:35.834Z,4.30
2019-02-26T11:51:05.799Z,4.70
2019-02-26T11:53:35.694Z,4.00
2019-02-26T11:56:05.641Z,4.37
2019-02-26T11:58:37.786Z,3.93
2019-02-26T12:01:14.007Z,3.73
2019-02-26T12:03:44.063Z,4.67
2019-02-26T12:06:13.943Z,3.83
2019-02-26T12:08:44.876Z,4.17
2019-02-26T12:11:17.783Z,4.43
2019-02-26T12:13:47.330Z,5.40
2019-02-26T12:16:18.420Z,4.97
2019-02-26T12:18:48.263Z,5.00
2019-02-26T12:21:18.229Z,3.63
2019-02-26T12:23:48.134Z,4.00
2019-02-26T12:26:21.684Z,3.57
2019-02-26T12:28:52.275Z,3.30
2019-02-26T12:31:22.016Z,3.07
2019-02-26T12:33:51.882Z,3.20
2019-02-26T12:36:23.591Z,3.70
2019-02-26T12:38:54.282Z,3.30
2019-02-26T12:41:24.822Z,3.70
2019-02-26T12:43:54.667Z,3.00
2019-02-26T12:46:27.338Z,3.50
2019-02-26T12:48:56.035Z,3.10
2019-02-26T12:51:28.082Z,3.07
2019-02-26T12:53:57.411Z,3.13
2019-02-26T12:56:29.868Z,2.77
2019-02-26T12:58:58.838Z,3.17
2019-02-26T13:01:28.687Z,3.63
2019-02-26T13:03:58.539Z,3.50
2019-02-26T13:06:28.409Z,3.00
2019-02-26T13:08:58.250Z,2.63
2019-02-26T13:11:28.673Z,2.90
2019-02-26T13:13:58.523Z,2.60
2019-02-26T13:16:28.380Z,3.30
2019-02-26T13:19:00.891Z,3.13
2019-02-26T13:21:29.724Z,2.57
2019-02-26T13:24:11.452Z,2.80
2019-02-26T13:29:02.630Z,2.67
2019-02-26T13:34:03.993Z,3.93
2019-02-26T13:36:36.402Z,3.23
2019-02-26T13:39:07.849Z,3.50
2019-02-26T13:41:39.057Z,2.73
2019-02-26T13:44:09.663Z,2.70
2019-02-26T13:46:39.551Z,2.43
2019-02-26T13:49:08.756Z,2.27
2019-02-26T13:51:38.601Z,2.60
2019-02-26T13:54:08.491Z,2.40
2019-02-26T13:56:38.388Z,2.30
2019-02-26T13:59:08.213Z,2.60
2019-02-26T14:01:38.104Z,7.30
2019-02-26T14:04:07.937Z,3.13
2019-02-26T14:06:38.127Z,2.77
2019-02-26T14:09:08.562Z,2.83
2019-02-26T14:11:38.471Z,4.90
2019-02-26T14:14:08.426Z,3.90
2019-02-26T14:16:38.296Z,2.77
2019-02-26T14:19:08.187Z,3.67
2019-02-26T14:21:38.021Z,3.03
2019-02-26T14:24:07.876Z,3.20
2019-02-26T14:27:15.891Z,2.70
2019-02-26T14:29:45.722Z,3.30
2019-02-26T14:32:15.579Z,3.37
2019-02-26T14:34:45.666Z,3.83
2019-02-26T14:37:15.514Z,4.03
2019-02-26T14:39:45.403Z,3.03
2019-02-26T14:42:18.839Z,3.40
2019-02-26T14:44:49.907Z,3.30
2019-02-26T14:47:20.465Z,3.23
2019-02-26T14:49:50.797Z,3.93
2019-02-26T14:52:20.669Z,4.17
2019-02-26T14:54:50.590Z,2.63
2019-02-26T14:57:20.502Z,3.00
2019-02-26T14:59:50.422Z,3.20
2019-02-26T15:02:20.253Z,4.63
2019-02-26T15:04:50.101Z,3.83
2019-02-26T15:07:20.930Z,3.97
2019-02-26T15:09:50.818Z,3.30
2019-02-26T15:12:21.138Z,3.37
2019-02-26T15:14:51.707Z,4.40
2019-02-26T15:17:21.591Z,3.87
2019-02-26T15:19:56.328Z,2.80
2019-02-26T15:22:28.166Z,3.97
2019-02-26T15:24:58.225Z,4.33
2019-02-26T15:27:35.893Z,3.43
2019-02-26T15:29:59.914Z,3.27
2019-02-26T15:32:56.545Z,4.20
2019-02-26T15:35:27.294Z,3.50
2019-02-26T15:38:01.420Z,3.37
2019-02-26T15:40:31.478Z,4.23
2019-02-26T15:45:52.170Z,4.37
2019-02-26T15:48:22.183Z,3.77
2019-02-26T15:50:52.017Z,3.73
2019-02-26T15:53:23.847Z,3.97
2019-02-26T15:55:53.667Z,3.47
2019-02-26T15:58:24.015Z,3.43
2019-02-26T16:00:53.860Z,4.40
2019-02-26T16:03:23.858Z,4.73
2019-02-26T16:05:54.887Z,5.07
2019-02-26T16:08:34.209Z,4.03
2019-02-26T16:10:56.834Z,4.13
2019-02-26T16:13:27.168Z,3.70
2019-02-26T16:15:57.632Z,4.13
2019-02-26T16:18:30.134Z,4.40
2019-02-26T16:20:59.937Z,4.93
2019-02-26T16:23:29.791Z,6.43
2019-02-26T16:26:00.727Z,6.47
2019-02-26T16:28:31.851Z,4.93
2019-02-26T16:31:04.665Z,5.83
2019-02-26T16:33:37.651Z,4.97
2019-02-26T16:36:08.225Z,5.73
2019-02-26T16:38:38.101Z,6.30
2019-02-26T16:41:08.050Z,5.57
2019-02-26T16:43:40.074Z,6.47
2019-02-26T16:46:10.186Z,6.47
2019-02-26T16:48:40.248Z,5.73
2019-02-26T16:51:10.080Z,6.23
2019-02-26T16:53:39.932Z,6.30
2019-02-26T16:56:09.859Z,6.20
2019-02-26T16:58:39.753Z,6.83
2019-02-26T17:01:10.803Z,6.63
2019-02-26T17:03:40.655Z,6.20
2019-02-26T17:06:12.135Z,6.13
2019-02-26T17:08:42.011Z,6.73
2019-02-26T17:11:13.548Z,6.50
2019-02-26T17:13:44.151Z,6.50
2019-02-26T17:16:14.509Z,6.53
2019-02-26T17:18:44.414Z,5.97
2019-02-26T17:21:14.253Z,6.60
2019-02-26T17:23:47.094Z,7.37
2019-02-26T17:26:17.625Z,7.83
2019-02-26T17:28:47.574Z,6.87
2019-02-26T17:31:17.418Z,7.90
2019-02-26T17:33:47.860Z,6.93
2019-02-26T17:36:17.721Z,7.73
2019-02-26T17:38:51.532Z,8.77
2019-02-26T17:41:19.495Z,8.07
2019-02-26T17:43:49.385Z,8.57
2019-02-26T17:46:19.221Z,8.33
2019-02-26T17:48:49.083Z,7.67
2019-02-26T17:51:19.535Z,7.03
2019-02-26T17:53:49.711Z,7.87
2019-02-26T17:56:19.587Z,8.20
2019-02-26T17:58:49.791Z,8.43
2019-02-26T18:01:19.635Z,7.63
2019-02-26T18:03:49.474Z,9.03
2019-02-26T18:06:19.430Z,8.60
2019-02-26T18:08:49.269Z,8.53
2019-02-26T18:11:20.864Z,9.37
2019-02-26T18:13:50.809Z,10.30
2019-02-26T18:16:21.235Z,9.80
2019-02-26T18:18:51.123Z,12.17
2019-02-26T18:21:20.973Z,12.77
2019-02-26T18:23:50.839Z,11.37
2019-02-26T18:26:20.816Z,11.17
2019-02-26T18:28:50.755Z,10.83
2019-02-26T18:31:26.491Z,11.50
2019-02-26T18:33:52.189Z,9.90
2019-02-26T18:36:22.067Z,10.53
2019-02-26T18:38:51.942Z,10.27
2019-02-26T18:41:21.795Z,11.70
2019-02-26T18:43:51.757Z,10.93
2019-02-26T18:46:21.604Z,9.70
2019-02-26T18:48:51.450Z,10.43
2019-02-26T18:51:21.360Z,9.20
2019-02-26T18:53:51.335Z,9.57
2019-02-26T18:56:21.275Z,9.37
2019-02-26T18:58:51.856Z,10.83
2019-02-26T19:01:22.518Z,11.53
2019-02-26T19:03:52.584Z,10.53
2019-02-26T19:06:24.722Z,13.43
2019-02-26T19:08:54.111Z,11.80
2019-02-26T19:11:25.655Z,12.80
2019-02-26T19:13:56.235Z,11.97
2019-02-26T19:16:26.105Z,14.40
2019-02-26T19:18:56.566Z,12.17
2019-02-26T19:21:26.398Z,11.73
2019-02-26T19:23:56.258Z,11.43
2019-02-26T19:26:27.846Z,10.63
2019-02-26T19:28:59.075Z,10.97
2019-02-26T19:31:29.275Z,12.07
2019-02-26T19:33:59.517Z,10.97
2019-02-26T19:36:29.358Z,11.10
2019-02-26T19:39:00.956Z,10.57
2019-02-26T19:41:30.785Z,10.87
2019-02-26T19:44:00.743Z,10.03
2019-02-26T19:46:30.743Z,9.90
2019-02-26T19:49:00.617Z,10.80
2019-02-26T19:51:30.459Z,11.87
2019-02-26T19:54:00.420Z,11.03
2019-02-26T19:56:30.268Z,11.57
2019-02-26T19:59:00.150Z,10.60
2019-02-26T20:01:30.055Z,11.97
2019-02-26T20:03:59.899Z,11.10
2019-02-26T20:06:29.797Z,10.33
2019-02-26T20:08:59.697Z,10.20
2019-02-26T20:11:29.666Z,10.73
2019-02-26T20:14:04.712Z,9.10
2019-02-26T20:16:31.028Z,10.67
2019-02-26T20:19:00.905Z,10.33
2019-02-26T20:21:30.740Z,10.30
2019-02-26T20:24:00.607Z,12.47
2019-02-26T20:26:30.431Z,11.47
2019-02-26T20:29:00.822Z,11.30
2019-02-26T20:31:30.748Z,11.30
2019-02-26T20:34:00.608Z,11.73
2019-02-26T20:36:30.494Z,10.70
2019-02-26T20:39:00.354Z,11.03
2019-02-26T20:41:30.347Z,11.03
2019-02-26T20:44:00.190Z,11.33
2019-02-26T20:46:30.027Z,11.40
2019-02-26T20:48:59.892Z,14.80
2019-02-26T20:51:29.763Z,15.27
2019-02-26T20:53:59.624Z,12.73
2019-02-26T20:56:31.015Z,12.87
2019-02-26T20:59:01.042Z,13.17
2019-02-26T21:01:32.501Z,12.17
2019-02-26T21:04:02.448Z,12.57
2019-02-26T21:06:32.295Z,12.43
2019-02-26T21:09:06.857Z,12.47
2019-02-26T21:15:01.604Z,11.90
2019-02-26T21:17:31.458Z,12.93
2019-02-26T21:20:01.301Z,11.47
2019-02-26T21:22:31.197Z,14.03
2019-02-26T21:25:01.022Z,13.70
2019-02-26T21:27:30.868Z,13.80
2019-02-26T21:30:00.768Z,15.03
2019-02-26T21:32:30.615Z,13.23
2019-02-26T21:35:00.521Z,13.73
2019-02-26T21:37:32.600Z,12.73
2019-02-26T21:40:01.973Z,11.70
2019-02-26T21:42:31.837Z,14.47
2019-02-26T21:45:01.713Z,12.43
2019-02-26T21:47:31.618Z,11.47
2019-02-26T21:50:01.497Z,12.13
2019-02-26T21:52:31.340Z,13.37
2019-02-26T21:55:01.627Z,12.67
2019-02-26T21:57:31.771Z,11.70
2019-02-26T22:00:05.089Z,11.17
2019-02-26T22:02:33.326Z,10.40
2019-02-26T22:05:05.276Z,10.83
2019-02-26T22:07:34.681Z,10.47
2019-02-26T22:10:07.077Z,10.67
2019-02-26T22:12:36.345Z,10.23
2019-02-26T22:15:10.102Z,10.93
2019-02-26T22:17:38.578Z,9.50
2019-02-26T22:20:21.621Z,9.30
2019-02-26T22:22:42.031Z,9.10
2019-02-26T22:25:15.809Z,9.43
2019-02-26T22:27:43.851Z,10.67
2019-02-26T22:30:15.618Z,10.90
2019-02-26T22:32:45.677Z,10.97
2019-02-26T22:35:15.534Z,10.50
2019-02-26T22:37:46.459Z,10.73
2019-02-26T22:40:16.494Z,11.40
2019-02-26T22:42:46.346Z,11.70
2019-02-26T22:45:16.325Z,11.10
2019-02-26T22:47:46.199Z,10.60
2019-02-26T22:50:16.061Z,10.50
2019-02-26T22:52:46.012Z,9.43
2019-02-26T22:55:17.575Z,9.93
2019-02-26T22:57:47.848Z,10.23
2019-02-26T23:00:56.005Z,8.87
2019-02-26T23:03:25.971Z,9.13
2019-02-26T23:05:58.779Z,8.30
2019-02-26T23:08:27.954Z,8.73
2019-02-26T23:10:58.060Z,8.37
2019-02-26T23:13:31.461Z,7.90
2019-02-26T23:16:00.243Z,7.67
2019-02-26T23:18:30.975Z,7.73
2019-02-26T23:21:01.821Z,7.60
2019-02-26T23:23:31.900Z,7.20
2019-02-26T23:26:01.774Z,7.27
2019-02-26T23:28:31.722Z,7.73
2019-02-26T23:31:01.826Z,7.30
2019-02-26T23:33:31.648Z,6.47
2019-02-26T23:36:01.622Z,7.27
2019-02-26T23:38:31.592Z,7.50
2019-02-26T23:41:01.526Z,7.03
2019-02-26T23:43:32.294Z,7.40
2019-02-26T23:46:02.244Z,6.73
2019-02-26T23:48:32.100Z,7.47
2019-02-26T23:51:01.955Z,6.47
2019-02-26T23:53:33.862Z,6.90
2019-02-26T23:56:03.315Z,7.10
2019-02-26T23:58:34.930Z,6.60
